sensor_id;sensor_type;location;lat;lon;timestamp;temperature;humidity
316;DHT22;14128;48.686;9.738;2022-12-07T00:00:14;3.50;1.40
316;DHT22;14128;48.686;9.738;2022-12-07T00:02:41;3.50;1.40
316;DHT22;14128;48.686;9.738;2022-12-07T00:05:08;3.50;1.40
316;DHT22;14128;48.686;9.738;2022-12-07T00:07:36;3.40;1.40
316;DHT22;14128;48.686;9.738;2022-12-07T00:10:03;3.50;1.40
316;DHT22;14128;48.686;9.738;2022-12-07T00:12:31;3.40;1.40
316;DHT22;14128;48.686;9.738;2022-12-07T00:14:57;3.40;1.40
316;DHT22;14128;48.686;9.738;2022-12-07T00:17:24;3.40;1.40
316;DHT22;14128;48.686;9.738;2022-12-07T00:19:51;3.50;1.40
316;DHT22;14128;48.686;9.738;2022-12-07T00:22:18;3.50;1.40
316;DHT22;14128;48.686;9.738;2022-12-07T00:24:46;3.50;1.40
316;DHT22;14128;48.686;9.738;2022-12-07T00:27:12;3.50;1.40
316;DHT22;14128;48.686;9.738;2022-12-07T00:29:39;3.50;1.40
316;DHT22;14128;48.686;9.738;2022-12-07T00:32:06;3.50;1.40
316;DHT22;14128;48.686;9.738;2022-12-07T00:34:33;3.40;1.40
316;DHT22;14128;48.686;9.738;2022-12-07T00:37:00;3.40;1.40
316;DHT22;14128;48.686;9.738;2022-12-07T00:39:27;3.40;1.40
316;DHT22;14128;48.686;9.738;2022-12-07T00:41:55;3.40;1.40
316;DHT22;14128;48.686;9.738;2022-12-07T00:44:22;3.40;1.40
316;DHT22;14128;48.686;9.738;2022-12-07T00:46:48;3.40;1.40
316;DHT22;14128;48.686;9.738;2022-12-07T00:49:15;3.40;1.40
316;DHT22;14128;48.686;9.738;2022-12-07T00:51:42;3.30;1.40
316;DHT22;14128;48.686;9.738;2022-12-07T00:54:09;3.30;1.40
316;DHT22;14128;48.686;9.738;2022-12-07T00:56:35;3.40;1.40
316;DHT22;14128;48.686;9.738;2022-12-07T00:59:04;3.40;1.40
316;DHT22;14128;48.686;9.738;2022-12-07T01:01:33;3.40;1.40
316;DHT22;14128;48.686;9.738;2022-12-07T01:04:01;3.40;1.40
316;DHT22;14128;48.686;9.738;2022-12-07T01:06:28;3.40;1.40
316;DHT22;14128;48.686;9.738;2022-12-07T01:08:55;3.40;1.40
316;DHT22;14128;48.686;9.738;2022-12-07T01:11:23;3.40;1.40
316;DHT22;14128;48.686;9.738;2022-12-07T01:13:52;3.40;1.40
316;DHT22;14128;48.686;9.738;2022-12-07T01:16:22;3.40;1.40
316;DHT22;14128;48.686;9.738;2022-12-07T01:18:51;3.40;1.40
316;DHT22;14128;48.686;9.738;2022-12-07T01:21:20;3.40;1.40
316;DHT22;14128;48.686;9.738;2022-12-07T01:23:47;3.40;1.40
316;DHT22;14128;48.686;9.738;2022-12-07T01:26:17;3.40;1.40
316;DHT22;14128;48.686;9.738;2022-12-07T01:28:44;3.40;1.40
316;DHT22;14128;48.686;9.738;2022-12-07T01:31:12;3.40;1.40
316;DHT22;14128;48.686;9.738;2022-12-07T01:33:43;3.40;1.40
316;DHT22;14128;48.686;9.738;2022-12-07T01:36:14;3.50;1.40
316;DHT22;14128;48.686;9.738;2022-12-07T01:38:42;3.40;1.40
316;DHT22;14128;48.686;9.738;2022-12-07T01:41:10;3.40;1.40
316;DHT22;14128;48.686;9.738;2022-12-07T01:44:06;3.40;1.40
316;DHT22;14128;48.686;9.738;2022-12-07T01:46:30;3.40;1.40
316;DHT22;14128;48.686;9.738;2022-12-07T01:48:56;3.40;1.40
316;DHT22;14128;48.686;9.738;2022-12-07T01:51:23;3.40;1.40
316;DHT22;14128;48.686;9.738;2022-12-07T01:53:50;3.40;1.40
316;DHT22;14128;48.686;9.738;2022-12-07T01:56:19;3.40;1.40
316;DHT22;14128;48.686;9.738;2022-12-07T01:58:47;3.50;1.40
316;DHT22;14128;48.686;9.738;2022-12-07T02:01:15;3.50;1.40
316;DHT22;14128;48.686;9.738;2022-12-07T02:03:45;3.50;1.40
316;DHT22;14128;48.686;9.738;2022-12-07T02:06:14;3.50;1.40
316;DHT22;14128;48.686;9.738;2022-12-07T02:08:43;3.50;1.40
316;DHT22;14128;48.686;9.738;2022-12-07T02:11:10;3.50;1.40
316;DHT22;14128;48.686;9.738;2022-12-07T02:13:38;3.50;1.40
316;DHT22;14128;48.686;9.738;2022-12-07T02:16:16;3.50;1.40
316;DHT22;14128;48.686;9.738;2022-12-07T02:18:59;3.50;1.40
316;DHT22;14128;48.686;9.738;2022-12-07T02:21:36;3.40;1.40
316;DHT22;14128;48.686;9.738;2022-12-07T02:27:27;3.30;1.40
316;DHT22;14128;48.686;9.738;2022-12-07T02:30:02;3.20;1.40
316;DHT22;14128;48.686;9.738;2022-12-07T02:32:40;3.20;1.40
316;DHT22;14128;48.686;9.738;2022-12-07T02:35:11;3.20;1.40
316;DHT22;14128;48.686;9.738;2022-12-07T02:37:42;3.20;1.40
316;DHT22;14128;48.686;9.738;2022-12-07T02:40:14;3.20;1.40
316;DHT22;14128;48.686;9.738;2022-12-07T02:42:48;3.10;1.40
316;DHT22;14128;48.686;9.738;2022-12-07T02:45:18;3.10;1.40
316;DHT22;14128;48.686;9.738;2022-12-07T02:47:50;3.10;1.40
316;DHT22;14128;48.686;9.738;2022-12-07T02:50:19;3.20;1.40
316;DHT22;14128;48.686;9.738;2022-12-07T02:52:46;3.10;1.40
316;DHT22;14128;48.686;9.738;2022-12-07T02:55:15;3.10;1.40
316;DHT22;14128;48.686;9.738;2022-12-07T02:58:11;3.00;1.40
316;DHT22;14128;48.686;9.738;2022-12-07T03:00:47;3.00;1.40
316;DHT22;14128;48.686;9.738;2022-12-07T03:03:16;3.00;1.40
316;DHT22;14128;48.686;9.738;2022-12-07T03:06:02;2.90;1.40
316;DHT22;14128;48.686;9.738;2022-12-07T03:08:38;3.00;1.40
316;DHT22;14128;48.686;9.738;2022-12-07T03:11:09;3.00;1.40
316;DHT22;14128;48.686;9.738;2022-12-07T03:13:41;3.00;1.40
316;DHT22;14128;48.686;9.738;2022-12-07T03:16:15;2.90;1.40
316;DHT22;14128;48.686;9.738;2022-12-07T03:18:46;2.90;1.40
316;DHT22;14128;48.686;9.738;2022-12-07T03:21:16;3.00;1.40
316;DHT22;14128;48.686;9.738;2022-12-07T03:23:47;2.90;1.40
316;DHT22;14128;48.686;9.738;2022-12-07T03:26:17;2.90;1.40
316;DHT22;14128;48.686;9.738;2022-12-07T03:28:49;2.80;1.40
316;DHT22;14128;48.686;9.738;2022-12-07T03:31:21;2.90;1.40
316;DHT22;14128;48.686;9.738;2022-12-07T03:33:53;2.80;1.40
316;DHT22;14128;48.686;9.738;2022-12-07T03:36:27;2.90;1.40
316;DHT22;14128;48.686;9.738;2022-12-07T03:38:57;2.80;1.40
316;DHT22;14128;48.686;9.738;2022-12-07T03:41:29;2.80;1.40
316;DHT22;14128;48.686;9.738;2022-12-07T03:43:57;2.80;1.40
316;DHT22;14128;48.686;9.738;2022-12-07T03:46:32;2.70;1.40
316;DHT22;14128;48.686;9.738;2022-12-07T03:49:08;2.80;1.40
316;DHT22;14128;48.686;9.738;2022-12-07T03:51:40;2.90;1.40
316;DHT22;14128;48.686;9.738;2022-12-07T03:54:13;2.90;1.40
316;DHT22;14128;48.686;9.738;2022-12-07T03:56:42;2.80;1.40
316;DHT22;14128;48.686;9.738;2022-12-07T03:59:11;2.90;1.40
316;DHT22;14128;48.686;9.738;2022-12-07T04:01:41;2.90;1.40
316;DHT22;14128;48.686;9.738;2022-12-07T04:04:08;2.90;1.40
316;DHT22;14128;48.686;9.738;2022-12-07T04:06:35;2.90;1.40
316;DHT22;14128;48.686;9.738;2022-12-07T04:09:02;2.90;1.40
316;DHT22;14128;48.686;9.738;2022-12-07T04:11:29;2.90;1.40
316;DHT22;14128;48.686;9.738;2022-12-07T04:13:56;2.90;1.40
316;DHT22;14128;48.686;9.738;2022-12-07T04:16:41;2.90;1.40
316;DHT22;14128;48.686;9.738;2022-12-07T04:19:08;2.90;1.40
316;DHT22;14128;48.686;9.738;2022-12-07T04:21:35;2.90;1.40
316;DHT22;14128;48.686;9.738;2022-12-07T04:24:02;2.90;1.40
316;DHT22;14128;48.686;9.738;2022-12-07T04:26:29;2.90;1.40
316;DHT22;14128;48.686;9.738;2022-12-07T04:28:56;2.80;1.40
316;DHT22;14128;48.686;9.738;2022-12-07T04:31:23;2.80;1.40
316;DHT22;14128;48.686;9.738;2022-12-07T04:33:51;2.70;1.40
316;DHT22;14128;48.686;9.738;2022-12-07T04:36:18;2.60;1.40
316;DHT22;14128;48.686;9.738;2022-12-07T04:38:46;2.50;1.40
316;DHT22;14128;48.686;9.738;2022-12-07T04:41:13;2.50;1.40
316;DHT22;14128;48.686;9.738;2022-12-07T04:43:39;2.50;1.40
316;DHT22;14128;48.686;9.738;2022-12-07T04:46:06;2.50;1.40
316;DHT22;14128;48.686;9.738;2022-12-07T04:48:33;2.50;1.40
316;DHT22;14128;48.686;9.738;2022-12-07T04:51:02;2.50;1.40
316;DHT22;14128;48.686;9.738;2022-12-07T04:53:29;2.50;1.40
316;DHT22;14128;48.686;9.738;2022-12-07T04:55:56;2.40;1.40
316;DHT22;14128;48.686;9.738;2022-12-07T04:58:23;2.40;1.40
316;DHT22;14128;48.686;9.738;2022-12-07T05:00:54;2.40;1.40
316;DHT22;14128;48.686;9.738;2022-12-07T05:03:21;2.40;1.40
316;DHT22;14128;48.686;9.738;2022-12-07T05:05:47;2.30;1.40
316;DHT22;14128;48.686;9.738;2022-12-07T05:08:15;2.30;1.40
316;DHT22;14128;48.686;9.738;2022-12-07T05:10:42;2.00;1.40
316;DHT22;14128;48.686;9.738;2022-12-07T05:13:09;1.80;1.40
316;DHT22;14128;48.686;9.738;2022-12-07T05:15:36;1.70;1.40
316;DHT22;14128;48.686;9.738;2022-12-07T05:18:03;1.70;1.40
316;DHT22;14128;48.686;9.738;2022-12-07T05:20:30;1.70;1.40
316;DHT22;14128;48.686;9.738;2022-12-07T05:22:57;1.70;1.40
316;DHT22;14128;48.686;9.738;2022-12-07T05:25:26;1.70;1.40
316;DHT22;14128;48.686;9.738;2022-12-07T05:27:54;1.70;1.40
316;DHT22;14128;48.686;9.738;2022-12-07T05:30:21;1.70;1.40
316;DHT22;14128;48.686;9.738;2022-12-07T05:32:48;1.70;1.40
316;DHT22;14128;48.686;9.738;2022-12-07T05:35:15;1.70;1.40
316;DHT22;14128;48.686;9.738;2022-12-07T05:37:42;1.70;1.40
316;DHT22;14128;48.686;9.738;2022-12-07T05:40:10;1.70;1.40
316;DHT22;14128;48.686;9.738;2022-12-07T05:42:39;1.70;1.40
316;DHT22;14128;48.686;9.738;2022-12-07T05:45:07;1.70;1.40
316;DHT22;14128;48.686;9.738;2022-12-07T05:47:34;1.70;1.40
316;DHT22;14128;48.686;9.738;2022-12-07T05:50:01;1.80;1.40
316;DHT22;14128;48.686;9.738;2022-12-07T05:52:27;1.80;1.40
316;DHT22;14128;48.686;9.738;2022-12-07T05:54:54;1.80;1.40
316;DHT22;14128;48.686;9.738;2022-12-07T05:57:21;1.80;1.40
316;DHT22;14128;48.686;9.738;2022-12-07T05:59:49;1.80;1.40
316;DHT22;14128;48.686;9.738;2022-12-07T06:02:16;1.80;1.40
316;DHT22;14128;48.686;9.738;2022-12-07T06:04:44;1.80;1.40
316;DHT22;14128;48.686;9.738;2022-12-07T06:07:13;1.80;1.40
316;DHT22;14128;48.686;9.738;2022-12-07T06:09:40;1.70;1.40
316;DHT22;14128;48.686;9.738;2022-12-07T06:12:09;1.70;1.40
316;DHT22;14128;48.686;9.738;2022-12-07T06:14:55;1.60;1.40
316;DHT22;14128;48.686;9.738;2022-12-07T06:17:22;1.50;1.40
316;DHT22;14128;48.686;9.738;2022-12-07T06:19:49;1.50;1.40
316;DHT22;14128;48.686;9.738;2022-12-07T06:22:16;1.40;1.40
316;DHT22;14128;48.686;9.738;2022-12-07T06:24:43;1.40;1.40
316;DHT22;14128;48.686;9.738;2022-12-07T06:27:10;1.40;1.40
316;DHT22;14128;48.686;9.738;2022-12-07T06:29:37;1.40;1.40
316;DHT22;14128;48.686;9.738;2022-12-07T06:32:05;1.40;1.40
316;DHT22;14128;48.686;9.738;2022-12-07T06:34:32;1.60;1.40
316;DHT22;14128;48.686;9.738;2022-12-07T06:36:59;1.70;1.40
316;DHT22;14128;48.686;9.738;2022-12-07T06:39:27;1.80;1.40
316;DHT22;14128;48.686;9.738;2022-12-07T06:41:54;1.90;1.40
316;DHT22;14128;48.686;9.738;2022-12-07T06:44:22;1.90;1.40
316;DHT22;14128;48.686;9.738;2022-12-07T06:46:50;2.00;1.40
316;DHT22;14128;48.686;9.738;2022-12-07T06:49:18;2.00;1.40
316;DHT22;14128;48.686;9.738;2022-12-07T06:51:45;1.90;1.40
316;DHT22;14128;48.686;9.738;2022-12-07T06:54:13;1.90;1.40
316;DHT22;14128;48.686;9.738;2022-12-07T06:56:40;1.90;1.40
316;DHT22;14128;48.686;9.738;2022-12-07T06:59:07;2.00;1.40
316;DHT22;14128;48.686;9.738;2022-12-07T07:01:35;2.00;1.40
316;DHT22;14128;48.686;9.738;2022-12-07T07:04:02;2.10;1.40
316;DHT22;14128;48.686;9.738;2022-12-07T07:06:30;2.10;1.40
316;DHT22;14128;48.686;9.738;2022-12-07T07:08:57;2.00;1.40
316;DHT22;14128;48.686;9.738;2022-12-07T07:11:24;2.00;1.40
316;DHT22;14128;48.686;9.738;2022-12-07T07:13:51;2.00;1.40
316;DHT22;14128;48.686;9.738;2022-12-07T07:16:19;2.00;1.40
316;DHT22;14128;48.686;9.738;2022-12-07T07:18:46;2.00;1.40
316;DHT22;14128;48.686;9.738;2022-12-07T07:21:12;2.00;1.40
316;DHT22;14128;48.686;9.738;2022-12-07T07:23:41;2.00;1.40
316;DHT22;14128;48.686;9.738;2022-12-07T07:26:07;2.10;1.40
316;DHT22;14128;48.686;9.738;2022-12-07T07:28:34;2.10;1.40
316;DHT22;14128;48.686;9.738;2022-12-07T07:31:01;2.10;1.40
316;DHT22;14128;48.686;9.738;2022-12-07T07:33:28;2.10;1.40
316;DHT22;14128;48.686;9.738;2022-12-07T07:35:54;2.20;1.40
316;DHT22;14128;48.686;9.738;2022-12-07T07:38:21;2.10;1.40
316;DHT22;14128;48.686;9.738;2022-12-07T07:40:50;2.20;1.40
316;DHT22;14128;48.686;9.738;2022-12-07T07:43:16;2.20;1.40
316;DHT22;14128;48.686;9.738;2022-12-07T07:45:44;2.30;1.40
316;DHT22;14128;48.686;9.738;2022-12-07T07:48:11;2.30;1.40
316;DHT22;14128;48.686;9.738;2022-12-07T07:50:38;2.40;1.40
316;DHT22;14128;48.686;9.738;2022-12-07T07:53:05;2.40;1.40
316;DHT22;14128;48.686;9.738;2022-12-07T07:55:32;2.40;1.40
316;DHT22;14128;48.686;9.738;2022-12-07T07:58:00;2.50;1.40
316;DHT22;14128;48.686;9.738;2022-12-07T08:00:26;2.60;1.40
316;DHT22;14128;48.686;9.738;2022-12-07T08:02:53;2.60;1.40
316;DHT22;14128;48.686;9.738;2022-12-07T08:05:20;2.70;1.40
316;DHT22;14128;48.686;9.738;2022-12-07T08:07:47;2.70;1.40
316;DHT22;14128;48.686;9.738;2022-12-07T08:10:14;2.70;1.40
316;DHT22;14128;48.686;9.738;2022-12-07T08:12:42;2.80;1.40
316;DHT22;14128;48.686;9.738;2022-12-07T08:15:25;2.90;1.40
316;DHT22;14128;48.686;9.738;2022-12-07T08:17:52;3.00;1.40
316;DHT22;14128;48.686;9.738;2022-12-07T08:20:19;3.00;1.40
316;DHT22;14128;48.686;9.738;2022-12-07T08:22:45;3.10;1.40
316;DHT22;14128;48.686;9.738;2022-12-07T08:25:12;3.20;1.40
316;DHT22;14128;48.686;9.738;2022-12-07T08:27:39;3.20;1.40
316;DHT22;14128;48.686;9.738;2022-12-07T08:30:07;3.30;1.40
316;DHT22;14128;48.686;9.738;2022-12-07T08:32:35;3.30;1.40
316;DHT22;14128;48.686;9.738;2022-12-07T08:35:02;3.40;1.40
316;DHT22;14128;48.686;9.738;2022-12-07T08:37:29;3.40;1.40
316;DHT22;14128;48.686;9.738;2022-12-07T08:39:56;3.50;1.40
316;DHT22;14128;48.686;9.738;2022-12-07T08:42:22;3.60;1.40
316;DHT22;14128;48.686;9.738;2022-12-07T08:44:53;3.60;1.40
316;DHT22;14128;48.686;9.738;2022-12-07T08:47:20;3.70;1.40
316;DHT22;14128;48.686;9.738;2022-12-07T08:49:49;3.70;1.40
316;DHT22;14128;48.686;9.738;2022-12-07T08:52:17;3.80;1.40
316;DHT22;14128;48.686;9.738;2022-12-07T08:54:44;3.90;1.40
316;DHT22;14128;48.686;9.738;2022-12-07T08:57:12;4.00;1.40
316;DHT22;14128;48.686;9.738;2022-12-07T08:59:38;4.00;1.40
316;DHT22;14128;48.686;9.738;2022-12-07T09:02:06;4.10;1.40
316;DHT22;14128;48.686;9.738;2022-12-07T09:04:33;4.20;1.40
316;DHT22;14128;48.686;9.738;2022-12-07T09:07:01;4.20;1.40
316;DHT22;14128;48.686;9.738;2022-12-07T09:09:28;4.40;1.40
316;DHT22;14128;48.686;9.738;2022-12-07T09:11:55;4.40;1.40
316;DHT22;14128;48.686;9.738;2022-12-07T09:14:22;4.50;1.40
316;DHT22;14128;48.686;9.738;2022-12-07T09:16:49;4.50;1.40
316;DHT22;14128;48.686;9.738;2022-12-07T09:19:16;4.70;1.40
316;DHT22;14128;48.686;9.738;2022-12-07T09:21:43;4.80;1.40
316;DHT22;14128;48.686;9.738;2022-12-07T09:24:11;4.80;1.40
316;DHT22;14128;48.686;9.738;2022-12-07T09:26:38;4.80;1.40
316;DHT22;14128;48.686;9.738;2022-12-07T09:29:06;4.90;1.40
316;DHT22;14128;48.686;9.738;2022-12-07T09:31:32;4.90;1.40
316;DHT22;14128;48.686;9.738;2022-12-07T09:34:01;5.00;1.40
316;DHT22;14128;48.686;9.738;2022-12-07T09:36:28;5.00;1.40
316;DHT22;14128;48.686;9.738;2022-12-07T09:38:55;5.00;1.40
316;DHT22;14128;48.686;9.738;2022-12-07T09:41:25;5.00;1.40
316;DHT22;14128;48.686;9.738;2022-12-07T09:43:56;5.10;1.40
316;DHT22;14128;48.686;9.738;2022-12-07T09:46:24;5.10;1.40
316;DHT22;14128;48.686;9.738;2022-12-07T09:48:51;5.20;1.40
316;DHT22;14128;48.686;9.738;2022-12-07T09:51:20;5.20;1.40
316;DHT22;14128;48.686;9.738;2022-12-07T09:53:48;5.30;1.40
316;DHT22;14128;48.686;9.738;2022-12-07T09:56:17;5.30;1.40
316;DHT22;14128;48.686;9.738;2022-12-07T09:58:46;5.40;1.40
316;DHT22;14128;48.686;9.738;2022-12-07T10:01:16;5.40;1.40
316;DHT22;14128;48.686;9.738;2022-12-07T10:03:48;5.40;1.40
316;DHT22;14128;48.686;9.738;2022-12-07T10:06:15;5.40;1.40
316;DHT22;14128;48.686;9.738;2022-12-07T10:08:42;5.50;1.40
316;DHT22;14128;48.686;9.738;2022-12-07T10:11:10;5.50;1.40
316;DHT22;14128;48.686;9.738;2022-12-07T10:13:38;5.40;1.40
316;DHT22;14128;48.686;9.738;2022-12-07T10:16:16;5.40;1.40
316;DHT22;14128;48.686;9.738;2022-12-07T10:18:54;5.30;1.40
316;DHT22;14128;48.686;9.738;2022-12-07T10:21:22;5.30;1.40
316;DHT22;14128;48.686;9.738;2022-12-07T10:24:01;5.30;1.40
316;DHT22;14128;48.686;9.738;2022-12-07T10:26:32;5.50;1.40
316;DHT22;14128;48.686;9.738;2022-12-07T10:29:03;5.60;1.40
316;DHT22;14128;48.686;9.738;2022-12-07T10:31:32;5.60;1.40
316;DHT22;14128;48.686;9.738;2022-12-07T10:34:00;5.70;1.40
316;DHT22;14128;48.686;9.738;2022-12-07T10:36:34;5.90;1.40
316;DHT22;14128;48.686;9.738;2022-12-07T10:39:10;5.80;1.40
316;DHT22;14128;48.686;9.738;2022-12-07T10:41:53;5.70;1.40
316;DHT22;14128;48.686;9.738;2022-12-07T10:44:22;5.80;1.40
316;DHT22;14128;48.686;9.738;2022-12-07T10:47:09;5.80;1.40
316;DHT22;14128;48.686;9.738;2022-12-07T10:50:06;5.90;1.40
316;DHT22;14128;48.686;9.738;2022-12-07T10:52:49;5.70;1.40
316;DHT22;14128;48.686;9.738;2022-12-07T10:55:22;5.60;1.40
316;DHT22;14128;48.686;9.738;2022-12-07T10:58:14;5.60;1.40
316;DHT22;14128;48.686;9.738;2022-12-07T11:00:50;5.70;1.40
316;DHT22;14128;48.686;9.738;2022-12-07T11:03:34;5.90;1.40
316;DHT22;14128;48.686;9.738;2022-12-07T11:06:10;5.90;1.40
316;DHT22;14128;48.686;9.738;2022-12-07T11:08:51;5.90;1.40
316;DHT22;14128;48.686;9.738;2022-12-07T11:11:26;5.80;1.40
316;DHT22;14128;48.686;9.738;2022-12-07T11:14:03;6.10;1.40
316;DHT22;14128;48.686;9.738;2022-12-07T11:16:50;5.90;1.40
316;DHT22;14128;48.686;9.738;2022-12-07T11:19:34;6.00;1.40
316;DHT22;14128;48.686;9.738;2022-12-07T11:22:11;6.10;1.40
316;DHT22;14128;48.686;9.738;2022-12-07T11:24:45;6.10;1.40
316;DHT22;14128;48.686;9.738;2022-12-07T11:27:21;6.20;1.40
316;DHT22;14128;48.686;9.738;2022-12-07T11:30:00;6.30;1.40
316;DHT22;14128;48.686;9.738;2022-12-07T11:35:30;6.30;1.40
316;DHT22;14128;48.686;9.738;2022-12-07T11:38:03;6.30;1.40
316;DHT22;14128;48.686;9.738;2022-12-07T11:40:36;6.30;1.40
316;DHT22;14128;48.686;9.738;2022-12-07T11:43:09;6.30;1.40
316;DHT22;14128;48.686;9.738;2022-12-07T11:45:41;6.50;1.40
316;DHT22;14128;48.686;9.738;2022-12-07T11:48:14;6.50;1.40
316;DHT22;14128;48.686;9.738;2022-12-07T11:50:46;6.50;1.40
316;DHT22;14128;48.686;9.738;2022-12-07T11:53:18;6.60;1.40
316;DHT22;14128;48.686;9.738;2022-12-07T11:55:50;6.50;1.40
316;DHT22;14128;48.686;9.738;2022-12-07T11:58:41;6.40;1.40
316;DHT22;14128;48.686;9.738;2022-12-07T12:01:15;6.20;1.40
316;DHT22;14128;48.686;9.738;2022-12-07T12:03:48;6.30;1.40
316;DHT22;14128;48.686;9.738;2022-12-07T12:06:17;6.30;1.40
316;DHT22;14128;48.686;9.738;2022-12-07T12:08:48;6.20;1.40
316;DHT22;14128;48.686;9.738;2022-12-07T12:11:30;6.20;1.40
316;DHT22;14128;48.686;9.738;2022-12-07T12:14:29;6.30;1.40
316;DHT22;14128;48.686;9.738;2022-12-07T12:17:23;6.30;1.40
316;DHT22;14128;48.686;9.738;2022-12-07T12:20:03;6.30;1.40
316;DHT22;14128;48.686;9.738;2022-12-07T12:22:37;6.40;1.40
316;DHT22;14128;48.686;9.738;2022-12-07T12:25:12;6.50;1.40
316;DHT22;14128;48.686;9.738;2022-12-07T12:27:46;6.30;1.40
316;DHT22;14128;48.686;9.738;2022-12-07T12:30:34;6.40;1.40
316;DHT22;14128;48.686;9.738;2022-12-07T12:33:04;6.40;1.40
316;DHT22;14128;48.686;9.738;2022-12-07T12:35:34;6.50;1.40
316;DHT22;14128;48.686;9.738;2022-12-07T12:38:29;6.50;1.40
316;DHT22;14128;48.686;9.738;2022-12-07T12:40:57;6.50;1.40
316;DHT22;14128;48.686;9.738;2022-12-07T12:43:49;6.50;1.40
316;DHT22;14128;48.686;9.738;2022-12-07T12:46:48;6.50;1.40
316;DHT22;14128;48.686;9.738;2022-12-07T12:49:43;6.40;1.40
316;DHT22;14128;48.686;9.738;2022-12-07T12:55:16;6.40;1.40
316;DHT22;14128;48.686;9.738;2022-12-07T12:57:47;6.30;1.40
316;DHT22;14128;48.686;9.738;2022-12-07T13:00:19;6.30;1.40
316;DHT22;14128;48.686;9.738;2022-12-07T13:02:51;6.30;1.40
316;DHT22;14128;48.686;9.738;2022-12-07T13:05:20;6.10;1.40
316;DHT22;14128;48.686;9.738;2022-12-07T13:07:54;5.90;1.40
316;DHT22;14128;48.686;9.738;2022-12-07T13:10:38;5.70;1.40
316;DHT22;14128;48.686;9.738;2022-12-07T13:13:29;5.60;1.40
316;DHT22;14128;48.686;9.738;2022-12-07T13:18:56;5.50;1.40
316;DHT22;14128;48.686;9.738;2022-12-07T13:21:42;5.40;1.40
316;DHT22;14128;48.686;9.738;2022-12-07T13:24:12;5.30;1.40
316;DHT22;14128;48.686;9.738;2022-12-07T13:26:42;5.20;1.40
316;DHT22;14128;48.686;9.738;2022-12-07T13:29:12;5.20;1.40
316;DHT22;14128;48.686;9.738;2022-12-07T13:31:41;5.20;1.40
316;DHT22;14128;48.686;9.738;2022-12-07T13:34:27;5.20;1.40
316;DHT22;14128;48.686;9.738;2022-12-07T13:36:55;5.20;1.40
316;DHT22;14128;48.686;9.738;2022-12-07T13:39:24;5.20;1.40
316;DHT22;14128;48.686;9.738;2022-12-07T13:41:54;5.10;1.40
316;DHT22;14128;48.686;9.738;2022-12-07T13:44:23;5.10;1.40
316;DHT22;14128;48.686;9.738;2022-12-07T13:47:00;5.10;1.40
316;DHT22;14128;48.686;9.738;2022-12-07T13:49:32;5.00;1.40
316;DHT22;14128;48.686;9.738;2022-12-07T13:52:24;5.00;1.40
316;DHT22;14128;48.686;9.738;2022-12-07T13:54:56;5.00;1.40
316;DHT22;14128;48.686;9.738;2022-12-07T13:57:27;4.90;1.40
316;DHT22;14128;48.686;9.738;2022-12-07T13:59:54;4.90;1.40
316;DHT22;14128;48.686;9.738;2022-12-07T14:02:24;4.90;1.40
316;DHT22;14128;48.686;9.738;2022-12-07T14:04:52;4.90;1.40
316;DHT22;14128;48.686;9.738;2022-12-07T14:07:21;4.90;1.40
316;DHT22;14128;48.686;9.738;2022-12-07T14:09:59;4.80;1.40
316;DHT22;14128;48.686;9.738;2022-12-07T14:12:29;4.80;1.40
316;DHT22;14128;48.686;9.738;2022-12-07T14:14:57;4.80;1.40
316;DHT22;14128;48.686;9.738;2022-12-07T14:17:25;4.80;1.40
316;DHT22;14128;48.686;9.738;2022-12-07T14:19:54;4.80;1.40
316;DHT22;14128;48.686;9.738;2022-12-07T14:22:30;4.80;1.40
316;DHT22;14128;48.686;9.738;2022-12-07T14:25:09;4.80;1.40
316;DHT22;14128;48.686;9.738;2022-12-07T14:27:51;4.80;1.40
316;DHT22;14128;48.686;9.738;2022-12-07T14:30:21;4.80;1.40
316;DHT22;14128;48.686;9.738;2022-12-07T14:32:52;4.80;1.40
316;DHT22;14128;48.686;9.738;2022-12-07T14:35:19;4.80;1.40
316;DHT22;14128;48.686;9.738;2022-12-07T14:37:48;4.70;1.40
316;DHT22;14128;48.686;9.738;2022-12-07T14:40:17;4.70;1.40
316;DHT22;14128;48.686;9.738;2022-12-07T14:42:47;4.70;1.40
316;DHT22;14128;48.686;9.738;2022-12-07T14:45:15;4.70;1.40
316;DHT22;14128;48.686;9.738;2022-12-07T14:47:43;4.70;1.40
316;DHT22;14128;48.686;9.738;2022-12-07T14:50:12;4.70;1.40
316;DHT22;14128;48.686;9.738;2022-12-07T14:52:39;4.70;1.40
316;DHT22;14128;48.686;9.738;2022-12-07T14:55:13;4.60;1.40
316;DHT22;14128;48.686;9.738;2022-12-07T14:57:41;4.60;1.40
316;DHT22;14128;48.686;9.738;2022-12-07T15:00:13;4.60;1.40
316;DHT22;14128;48.686;9.738;2022-12-07T15:02:41;4.50;1.40
316;DHT22;14128;48.686;9.738;2022-12-07T15:05:08;4.50;1.40
316;DHT22;14128;48.686;9.738;2022-12-07T15:07:35;4.40;1.40
316;DHT22;14128;48.686;9.738;2022-12-07T15:10:02;4.40;1.40
316;DHT22;14128;48.686;9.738;2022-12-07T15:12:29;4.30;1.40
316;DHT22;14128;48.686;9.738;2022-12-07T15:14:56;4.30;1.40
316;DHT22;14128;48.686;9.738;2022-12-07T15:17:24;4.30;1.40
316;DHT22;14128;48.686;9.738;2022-12-07T15:19:51;4.30;1.40
316;DHT22;14128;48.686;9.738;2022-12-07T15:22:18;4.20;1.40
316;DHT22;14128;48.686;9.738;2022-12-07T15:24:45;4.20;1.40
316;DHT22;14128;48.686;9.738;2022-12-07T15:27:11;4.20;1.40
316;DHT22;14128;48.686;9.738;2022-12-07T15:29:38;4.10;1.40
316;DHT22;14128;48.686;9.738;2022-12-07T15:32:05;4.10;1.40
316;DHT22;14128;48.686;9.738;2022-12-07T15:34:33;4.10;1.40
316;DHT22;14128;48.686;9.738;2022-12-07T15:37:00;4.10;1.40
316;DHT22;14128;48.686;9.738;2022-12-07T15:39:27;4.00;1.40
316;DHT22;14128;48.686;9.738;2022-12-07T15:41:53;4.00;1.40
316;DHT22;14128;48.686;9.738;2022-12-07T15:44:20;4.00;1.40
316;DHT22;14128;48.686;9.738;2022-12-07T15:47:05;4.00;1.40
316;DHT22;14128;48.686;9.738;2022-12-07T15:49:33;3.90;1.40
316;DHT22;14128;48.686;9.738;2022-12-07T15:52:00;3.90;1.40
316;DHT22;14128;48.686;9.738;2022-12-07T15:54:28;3.90;1.40
316;DHT22;14128;48.686;9.738;2022-12-07T15:56:56;3.90;1.40
316;DHT22;14128;48.686;9.738;2022-12-07T15:59:23;3.90;1.40
316;DHT22;14128;48.686;9.738;2022-12-07T16:01:50;3.90;1.40
316;DHT22;14128;48.686;9.738;2022-12-07T16:04:17;3.90;1.40
316;DHT22;14128;48.686;9.738;2022-12-07T16:06:45;3.80;1.40
316;DHT22;14128;48.686;9.738;2022-12-07T16:09:12;3.80;1.40
316;DHT22;14128;48.686;9.738;2022-12-07T16:11:39;3.70;1.40
316;DHT22;14128;48.686;9.738;2022-12-07T16:14:06;3.70;1.40
316;DHT22;14128;48.686;9.738;2022-12-07T16:16:33;3.70;1.40
316;DHT22;14128;48.686;9.738;2022-12-07T16:18:59;3.70;1.40
316;DHT22;14128;48.686;9.738;2022-12-07T16:21:26;3.70;1.40
316;DHT22;14128;48.686;9.738;2022-12-07T16:23:57;3.60;1.40
316;DHT22;14128;48.686;9.738;2022-12-07T16:26:24;3.60;1.40
316;DHT22;14128;48.686;9.738;2022-12-07T16:28:51;3.70;1.40
316;DHT22;14128;48.686;9.738;2022-12-07T16:31:21;3.60;1.40
316;DHT22;14128;48.686;9.738;2022-12-07T16:33:49;3.70;1.40
316;DHT22;14128;48.686;9.738;2022-12-07T16:36:17;3.70;1.40
316;DHT22;14128;48.686;9.738;2022-12-07T16:38:44;3.70;1.40
316;DHT22;14128;48.686;9.738;2022-12-07T16:41:12;3.70;1.40
316;DHT22;14128;48.686;9.738;2022-12-07T16:43:39;3.70;1.40
316;DHT22;14128;48.686;9.738;2022-12-07T16:46:07;3.60;1.40
316;DHT22;14128;48.686;9.738;2022-12-07T16:48:35;3.60;1.40
316;DHT22;14128;48.686;9.738;2022-12-07T16:51:03;3.70;1.40
316;DHT22;14128;48.686;9.738;2022-12-07T16:53:30;3.60;1.40
316;DHT22;14128;48.686;9.738;2022-12-07T16:55:56;3.50;1.40
316;DHT22;14128;48.686;9.738;2022-12-07T16:58:25;3.50;1.40
316;DHT22;14128;48.686;9.738;2022-12-07T17:00:51;3.40;1.40
316;DHT22;14128;48.686;9.738;2022-12-07T17:03:18;3.50;1.40
316;DHT22;14128;48.686;9.738;2022-12-07T17:05:46;3.50;1.40